LQTZ/TZL METAR and TAF weather

Enter ICAO airport designator
Station Type Date Time Source
LQTZ METAR 2021/04/17 01:00 UTC NOAA

LQTZ 170100Z VRB01KT CAVOK M00/M01 Q1019


Station Type Date Time Source
LQTZ Decoded METAR 2021/04/17 01:00 UTC NOAA

Tuzla, Bosnia and Herzegovina (LQTZ) 44-33N 018-42E
Apr 16, 2021 - 09:00 PM EDT / 2021.04.17 0100 UTC
Wind: Variable at 1 MPH (1 KT):0
Visibility: greater than 7 mile(s):0
Temperature: 32 F (0 C)
Dew Point: 30 F (-1 C)
Relative Humidity: 92%
Pressure (altimeter): 30.09 in. Hg (1019 hPa)
ob: LQTZ 170100Z VRB01KT CAVOK M00/M01 Q1019
cycle: 1

Station Type Date Time Source
LQTZ TAF 2021/04/16 18:09 UTC NOAA

TAF COR TAF COR LQTZ 161700Z 1618/1718 03006KT CAVOK TX10/1713Z TN01/1704Z
TEMPO 1711/1718 09010KT
TEMPO 1715/1718 RA

Example: see airport list